sensor_id;sensor_type;location;lat;lon;timestamp;P1;durP1;ratioP1;P2;durP2;ratioP2
75608;SDS011;64194;51.044;13.780;2022-11-21T00:01:12;38.25;;;15.80;;
75608;SDS011;64194;51.044;13.780;2022-11-21T00:05:18;42.60;;;16.38;;
75608;SDS011;64194;51.044;13.780;2022-11-21T00:09:21;44.75;;;16.23;;
75608;SDS011;64194;51.044;13.780;2022-11-21T00:13:23;37.97;;;16.90;;
75608;SDS011;64194;51.044;13.780;2022-11-21T00:17:26;44.20;;;17.23;;
75608;SDS011;64194;51.044;13.780;2022-11-21T00:21:31;45.03;;;19.95;;
75608;SDS011;64194;51.044;13.780;2022-11-21T00:25:33;45.28;;;17.50;;
75608;SDS011;64194;51.044;13.780;2022-11-21T00:29:38;37.55;;;16.20;;
75608;SDS011;64194;51.044;13.780;2022-11-21T00:33:45;39.03;;;17.13;;
75608;SDS011;64194;51.044;13.780;2022-11-21T00:42:41;41.63;;;17.25;;
75608;SDS011;64194;51.044;13.780;2022-11-21T00:46:42;46.53;;;18.65;;
75608;SDS011;64194;51.044;13.780;2022-11-21T00:50:47;42.47;;;18.13;;
75608;SDS011;64194;51.044;13.780;2022-11-21T00:54:49;36.90;;;16.77;;
75608;SDS011;64194;51.044;13.780;2022-11-21T00:58:51;38.20;;;16.20;;
75608;SDS011;64194;51.044;13.780;2022-11-21T01:02:52;40.75;;;16.67;;
75608;SDS011;64194;51.044;13.780;2022-11-21T01:06:54;39.05;;;15.85;;
75608;SDS011;64194;51.044;13.780;2022-11-21T01:10:56;46.63;;;17.50;;
75608;SDS011;64194;51.044;13.780;2022-11-21T01:15:02;42.42;;;17.55;;
75608;SDS011;64194;51.044;13.780;2022-11-21T01:19:03;45.45;;;16.92;;
75608;SDS011;64194;51.044;13.780;2022-11-21T01:23:05;45.08;;;17.65;;
75608;SDS011;64194;51.044;13.780;2022-11-21T01:27:07;37.42;;;15.10;;
75608;SDS011;64194;51.044;13.780;2022-11-21T01:31:09;38.38;;;15.60;;
75608;SDS011;64194;51.044;13.780;2022-11-21T01:35:13;37.10;;;15.43;;
75608;SDS011;64194;51.044;13.780;2022-11-21T01:39:15;34.05;;;15.70;;
75608;SDS011;64194;51.044;13.780;2022-11-21T01:43:16;36.03;;;15.77;;
75608;SDS011;64194;51.044;13.780;2022-11-21T01:47:18;33.63;;;14.07;;
75608;SDS011;64194;51.044;13.780;2022-11-21T01:51:25;34.72;;;13.35;;
75608;SDS011;64194;51.044;13.780;2022-11-21T01:55:32;31.88;;;13.63;;
75608;SDS011;64194;51.044;13.780;2022-11-21T01:59:39;33.40;;;13.55;;
75608;SDS011;64194;51.044;13.780;2022-11-21T02:04:01;32.13;;;12.85;;
75608;SDS011;64194;51.044;13.780;2022-11-21T02:08:05;33.70;;;14.05;;
75608;SDS011;64194;51.044;13.780;2022-11-21T02:16:46;32.10;;;13.52;;
75608;SDS011;64194;51.044;13.780;2022-11-21T02:20:50;34.83;;;13.88;;
75608;SDS011;64194;51.044;13.780;2022-11-21T02:25:05;30.80;;;12.98;;
75608;SDS011;64194;51.044;13.780;2022-11-21T02:29:12;37.60;;;13.80;;
75608;SDS011;64194;51.044;13.780;2022-11-21T02:33:14;31.95;;;13.95;;
75608;SDS011;64194;51.044;13.780;2022-11-21T02:37:16;28.58;;;11.95;;
75608;SDS011;64194;51.044;13.780;2022-11-21T02:41:19;32.40;;;13.48;;
75608;SDS011;64194;51.044;13.780;2022-11-21T02:45:33;30.23;;;13.30;;
75608;SDS011;64194;51.044;13.780;2022-11-21T02:49:39;32.38;;;12.88;;
75608;SDS011;64194;51.044;13.780;2022-11-21T02:54:03;34.92;;;13.77;;
75608;SDS011;64194;51.044;13.780;2022-11-21T02:58:05;32.63;;;12.98;;
75608;SDS011;64194;51.044;13.780;2022-11-21T03:02:06;35.97;;;14.25;;
75608;SDS011;64194;51.044;13.780;2022-11-21T03:06:08;27.83;;;12.45;;
75608;SDS011;64194;51.044;13.780;2022-11-21T03:10:10;28.50;;;13.70;;
75608;SDS011;64194;51.044;13.780;2022-11-21T03:14:12;29.60;;;13.55;;
75608;SDS011;64194;51.044;13.780;2022-11-21T03:18:13;29.25;;;13.63;;
75608;SDS011;64194;51.044;13.780;2022-11-21T03:22:15;27.15;;;13.07;;
75608;SDS011;64194;51.044;13.780;2022-11-21T03:26:17;27.45;;;12.43;;
75608;SDS011;64194;51.044;13.780;2022-11-21T03:30:19;27.70;;;12.63;;
75608;SDS011;64194;51.044;13.780;2022-11-21T03:34:22;27.92;;;12.40;;
75608;SDS011;64194;51.044;13.780;2022-11-21T03:38:25;27.45;;;11.85;;
75608;SDS011;64194;51.044;13.780;2022-11-21T03:42:27;25.33;;;11.27;;
75608;SDS011;64194;51.044;13.780;2022-11-21T03:46:29;24.35;;;11.75;;
75608;SDS011;64194;51.044;13.780;2022-11-21T03:50:31;23.40;;;10.52;;
75608;SDS011;64194;51.044;13.780;2022-11-21T03:54:33;25.95;;;11.13;;
75608;SDS011;64194;51.044;13.780;2022-11-21T03:58:35;21.65;;;9.48;;
75608;SDS011;64194;51.044;13.780;2022-11-21T04:02:36;22.45;;;9.32;;
75608;SDS011;64194;51.044;13.780;2022-11-21T04:06:38;22.70;;;10.18;;
75608;SDS011;64194;51.044;13.780;2022-11-21T04:10:45;17.23;;;8.25;;
75608;SDS011;64194;51.044;13.780;2022-11-21T04:14:48;18.63;;;8.55;;
75608;SDS011;64194;51.044;13.780;2022-11-21T04:18:49;23.25;;;9.02;;
75608;SDS011;64194;51.044;13.780;2022-11-21T04:22:51;20.23;;;7.20;;
75608;SDS011;64194;51.044;13.780;2022-11-21T04:26:53;17.50;;;7.72;;
75608;SDS011;64194;51.044;13.780;2022-11-21T04:31:00;16.05;;;7.32;;
75608;SDS011;64194;51.044;13.780;2022-11-21T04:35:10;16.88;;;7.28;;
75608;SDS011;64194;51.044;13.780;2022-11-21T04:39:11;15.13;;;7.75;;
75608;SDS011;64194;51.044;13.780;2022-11-21T04:43:13;14.35;;;6.97;;
75608;SDS011;64194;51.044;13.780;2022-11-21T04:47:14;18.92;;;8.20;;
75608;SDS011;64194;51.044;13.780;2022-11-21T04:51:16;16.02;;;7.93;;
75608;SDS011;64194;51.044;13.780;2022-11-21T04:55:18;15.75;;;7.75;;
75608;SDS011;64194;51.044;13.780;2022-11-21T04:59:20;19.65;;;9.10;;
75608;SDS011;64194;51.044;13.780;2022-11-21T05:03:22;16.98;;;8.00;;
75608;SDS011;64194;51.044;13.780;2022-11-21T05:07:24;20.88;;;9.80;;
75608;SDS011;64194;51.044;13.780;2022-11-21T05:11:25;16.42;;;8.75;;
75608;SDS011;64194;51.044;13.780;2022-11-21T05:15:45;19.00;;;8.50;;
75608;SDS011;64194;51.044;13.780;2022-11-21T05:19:51;18.85;;;9.18;;
75608;SDS011;64194;51.044;13.780;2022-11-21T05:23:53;16.95;;;7.68;;
75608;SDS011;64194;51.044;13.780;2022-11-21T05:27:55;18.63;;;8.73;;
75608;SDS011;64194;51.044;13.780;2022-11-21T05:31:57;17.75;;;8.98;;
75608;SDS011;64194;51.044;13.780;2022-11-21T05:35:58;17.05;;;7.90;;
75608;SDS011;64194;51.044;13.780;2022-11-21T05:40:00;17.65;;;7.65;;
75608;SDS011;64194;51.044;13.780;2022-11-21T05:44:01;23.05;;;9.93;;
75608;SDS011;64194;51.044;13.780;2022-11-21T05:48:03;21.05;;;9.90;;
75608;SDS011;64194;51.044;13.780;2022-11-21T05:52:07;19.45;;;9.18;;
75608;SDS011;64194;51.044;13.780;2022-11-21T05:56:10;18.05;;;8.95;;
75608;SDS011;64194;51.044;13.780;2022-11-21T06:00:14;18.33;;;8.95;;
75608;SDS011;64194;51.044;13.780;2022-11-21T06:04:16;18.33;;;9.15;;
75608;SDS011;64194;51.044;13.780;2022-11-21T06:08:18;22.23;;;10.60;;
75608;SDS011;64194;51.044;13.780;2022-11-21T06:12:19;22.25;;;11.57;;
75608;SDS011;64194;51.044;13.780;2022-11-21T06:16:25;19.95;;;9.82;;
75608;SDS011;64194;51.044;13.780;2022-11-21T06:20:27;20.02;;;10.90;;
75608;SDS011;64194;51.044;13.780;2022-11-21T06:24:29;22.83;;;10.90;;
75608;SDS011;64194;51.044;13.780;2022-11-21T06:28:35;21.90;;;11.40;;
75608;SDS011;64194;51.044;13.780;2022-11-21T06:32:41;21.55;;;11.77;;
75608;SDS011;64194;51.044;13.780;2022-11-21T06:36:43;24.40;;;11.00;;
75608;SDS011;64194;51.044;13.780;2022-11-21T06:40:45;20.58;;;10.10;;
75608;SDS011;64194;51.044;13.780;2022-11-21T06:44:47;20.55;;;10.27;;
75608;SDS011;64194;51.044;13.780;2022-11-21T06:48:48;21.50;;;10.00;;
75608;SDS011;64194;51.044;13.780;2022-11-21T06:52:50;22.23;;;10.00;;
75608;SDS011;64194;51.044;13.780;2022-11-21T06:56:51;22.88;;;10.57;;
75608;SDS011;64194;51.044;13.780;2022-11-21T07:00:55;25.55;;;11.02;;
75608;SDS011;64194;51.044;13.780;2022-11-21T07:04:57;21.48;;;10.70;;
75608;SDS011;64194;51.044;13.780;2022-11-21T07:08:59;20.02;;;9.40;;
75608;SDS011;64194;51.044;13.780;2022-11-21T07:13:21;22.40;;;9.35;;
75608;SDS011;64194;51.044;13.780;2022-11-21T07:17:22;19.05;;;8.57;;
75608;SDS011;64194;51.044;13.780;2022-11-21T07:21:24;17.95;;;8.80;;
75608;SDS011;64194;51.044;13.780;2022-11-21T07:30:37;18.27;;;8.35;;
75608;SDS011;64194;51.044;13.780;2022-11-21T07:43:36;20.05;;;8.65;;
75608;SDS011;64194;51.044;13.780;2022-11-21T07:52:33;20.38;;;10.10;;
75608;SDS011;64194;51.044;13.780;2022-11-21T07:56:35;20.40;;;10.10;;
75608;SDS011;64194;51.044;13.780;2022-11-21T08:14:48;22.00;;;9.90;;
75608;SDS011;64194;51.044;13.780;2022-11-21T08:23:18;20.85;;;10.13;;
75608;SDS011;64194;51.044;13.780;2022-11-21T08:27:20;23.20;;;12.13;;
75608;SDS011;64194;51.044;13.780;2022-11-21T08:31:23;23.95;;;10.55;;
75608;SDS011;64194;51.044;13.780;2022-11-21T08:35:25;22.65;;;9.40;;
75608;SDS011;64194;51.044;13.780;2022-11-21T08:39:27;21.38;;;10.32;;
75608;SDS011;64194;51.044;13.780;2022-11-21T08:52:31;24.55;;;10.82;;
75608;SDS011;64194;51.044;13.780;2022-11-21T08:56:32;26.17;;;11.50;;
75608;SDS011;64194;51.044;13.780;2022-11-21T09:00:34;33.65;;;12.32;;
75608;SDS011;64194;51.044;13.780;2022-11-21T09:13:53;22.20;;;9.90;;
75608;SDS011;64194;51.044;13.780;2022-11-21T09:18:37;22.98;;;9.98;;
75608;SDS011;64194;51.044;13.780;2022-11-21T09:27:10;23.55;;;10.38;;
75608;SDS011;64194;51.044;13.780;2022-11-21T09:31:11;24.45;;;11.02;;
75608;SDS011;64194;51.044;13.780;2022-11-21T09:35:14;27.75;;;11.57;;
75608;SDS011;64194;51.044;13.780;2022-11-21T09:39:15;23.33;;;10.68;;
75608;SDS011;64194;51.044;13.780;2022-11-21T09:43:23;27.63;;;12.65;;
75608;SDS011;64194;51.044;13.780;2022-11-21T09:47:36;26.52;;;11.48;;
75608;SDS011;64194;51.044;13.780;2022-11-21T09:51:43;26.17;;;11.15;;
75608;SDS011;64194;51.044;13.780;2022-11-21T09:56:29;30.90;;;12.88;;
75608;SDS011;64194;51.044;13.780;2022-11-21T10:24:39;25.67;;;11.02;;
75608;SDS011;64194;51.044;13.780;2022-11-21T10:28:59;28.80;;;12.38;;
75608;SDS011;64194;51.044;13.780;2022-11-21T10:33:29;23.27;;;10.73;;
75608;SDS011;64194;51.044;13.780;2022-11-21T10:37:39;25.67;;;11.63;;
75608;SDS011;64194;51.044;13.780;2022-11-21T10:41:50;30.58;;;12.30;;
75608;SDS011;64194;51.044;13.780;2022-11-21T10:45:58;26.27;;;12.20;;
75608;SDS011;64194;51.044;13.780;2022-11-21T10:50:24;28.90;;;12.75;;
75608;SDS011;64194;51.044;13.780;2022-11-21T11:04:40;26.42;;;11.73;;
75608;SDS011;64194;51.044;13.780;2022-11-21T11:08:51;23.13;;;10.57;;
75608;SDS011;64194;51.044;13.780;2022-11-21T11:12:57;25.55;;;12.23;;
75608;SDS011;64194;51.044;13.780;2022-11-21T11:31:00;26.10;;;11.23;;
75608;SDS011;64194;51.044;13.780;2022-11-21T11:35:17;25.05;;;10.68;;
75608;SDS011;64194;51.044;13.780;2022-11-21T11:43:49;26.58;;;10.93;;
75608;SDS011;64194;51.044;13.780;2022-11-21T11:48:24;24.80;;;10.93;;
75608;SDS011;64194;51.044;13.780;2022-11-21T11:52:34;23.48;;;10.75;;
75608;SDS011;64194;51.044;13.780;2022-11-21T11:56:49;27.00;;;11.45;;
75608;SDS011;64194;51.044;13.780;2022-11-21T12:05:04;25.52;;;10.98;;
75608;SDS011;64194;51.044;13.780;2022-11-21T12:09:31;21.70;;;9.23;;
75608;SDS011;64194;51.044;13.780;2022-11-21T12:13:35;24.88;;;10.88;;
75608;SDS011;64194;51.044;13.780;2022-11-21T12:21:47;26.38;;;10.32;;
75608;SDS011;64194;51.044;13.780;2022-11-21T12:25:52;18.88;;;9.38;;
75608;SDS011;64194;51.044;13.780;2022-11-21T12:30:24;22.25;;;10.15;;
75608;SDS011;64194;51.044;13.780;2022-11-21T12:38:49;21.58;;;11.05;;
75608;SDS011;64194;51.044;13.780;2022-11-21T12:58:08;24.40;;;10.27;;
75608;SDS011;64194;51.044;13.780;2022-11-21T13:01:59;21.50;;;9.00;;
75608;SDS011;64194;51.044;13.780;2022-11-21T13:20:21;23.90;;;11.02;;
75608;SDS011;64194;51.044;13.780;2022-11-21T13:51:57;25.83;;;10.88;;
75608;SDS011;64194;51.044;13.780;2022-11-21T14:00:50;24.20;;;10.60;;
75608;SDS011;64194;51.044;13.780;2022-11-21T14:05:19;24.90;;;11.13;;
75608;SDS011;64194;51.044;13.780;2022-11-21T14:09:26;23.48;;;11.20;;
75608;SDS011;64194;51.044;13.780;2022-11-21T14:13:36;24.77;;;10.48;;
75608;SDS011;64194;51.044;13.780;2022-11-21T14:17:55;24.38;;;10.70;;
75608;SDS011;64194;51.044;13.780;2022-11-21T14:21:59;26.08;;;11.40;;
75608;SDS011;64194;51.044;13.780;2022-11-21T14:26:02;25.83;;;10.23;;
75608;SDS011;64194;51.044;13.780;2022-11-21T14:30:44;28.65;;;12.23;;
75608;SDS011;64194;51.044;13.780;2022-11-21T14:34:40;29.00;;;11.50;;
75608;SDS011;64194;51.044;13.780;2022-11-21T14:38:46;33.30;;;14.20;;
75608;SDS011;64194;51.044;13.780;2022-11-21T14:43:30;34.60;;;14.35;;
75608;SDS011;64194;51.044;13.780;2022-11-21T15:02:16;28.30;;;11.85;;
75608;SDS011;64194;51.044;13.780;2022-11-21T15:06:20;28.60;;;11.57;;
75608;SDS011;64194;51.044;13.780;2022-11-21T15:10:22;31.70;;;13.63;;
75608;SDS011;64194;51.044;13.780;2022-11-21T15:14:37;34.75;;;14.45;;
75608;SDS011;64194;51.044;13.780;2022-11-21T15:18:50;33.15;;;13.38;;
75608;SDS011;64194;51.044;13.780;2022-11-21T15:22:55;33.95;;;14.15;;
75608;SDS011;64194;51.044;13.780;2022-11-21T15:36:20;28.27;;;12.48;;
75608;SDS011;64194;51.044;13.780;2022-11-21T15:40:25;28.33;;;12.13;;
75608;SDS011;64194;51.044;13.780;2022-11-21T15:44:27;28.75;;;11.95;;
75608;SDS011;64194;51.044;13.780;2022-11-21T15:48:29;31.15;;;12.77;;
75608;SDS011;64194;51.044;13.780;2022-11-21T15:52:31;27.85;;;10.95;;
75608;SDS011;64194;51.044;13.780;2022-11-21T15:56:43;27.75;;;11.63;;
75608;SDS011;64194;51.044;13.780;2022-11-21T16:10:07;28.38;;;12.13;;
75608;SDS011;64194;51.044;13.780;2022-11-21T16:14:22;32.85;;;13.02;;
75608;SDS011;64194;51.044;13.780;2022-11-21T16:27:52;27.05;;;11.10;;
75608;SDS011;64194;51.044;13.780;2022-11-21T16:45:55;25.52;;;10.82;;
75608;SDS011;64194;51.044;13.780;2022-11-21T16:50:05;28.92;;;12.27;;
75608;SDS011;64194;51.044;13.780;2022-11-21T16:54:10;28.75;;;12.32;;
75608;SDS011;64194;51.044;13.780;2022-11-21T17:07:40;30.65;;;12.75;;
75608;SDS011;64194;51.044;13.780;2022-11-21T17:11:41;27.25;;;11.32;;
75608;SDS011;64194;51.044;13.780;2022-11-21T17:25:32;25.95;;;11.73;;
75608;SDS011;64194;51.044;13.780;2022-11-21T17:29:35;25.02;;;11.27;;
75608;SDS011;64194;51.044;13.780;2022-11-21T17:38:34;23.23;;;10.30;;
75608;SDS011;64194;51.044;13.780;2022-11-21T17:42:37;23.42;;;9.98;;
75608;SDS011;64194;51.044;13.780;2022-11-21T17:46:43;25.08;;;10.57;;
75608;SDS011;64194;51.044;13.780;2022-11-21T17:51:06;21.73;;;10.50;;
75608;SDS011;64194;51.044;13.780;2022-11-21T18:09:08;18.13;;;8.95;;
75608;SDS011;64194;51.044;13.780;2022-11-21T18:13:13;19.85;;;9.63;;
75608;SDS011;64194;51.044;13.780;2022-11-21T18:17:14;21.08;;;8.77;;
75608;SDS011;64194;51.044;13.780;2022-11-21T18:25:46;22.67;;;10.27;;
75608;SDS011;64194;51.044;13.780;2022-11-21T18:29:48;24.42;;;9.55;;
75608;SDS011;64194;51.044;13.780;2022-11-21T18:33:50;20.55;;;9.50;;
75608;SDS011;64194;51.044;13.780;2022-11-21T18:47:20;18.90;;;9.25;;
75608;SDS011;64194;51.044;13.780;2022-11-21T18:51:24;19.20;;;9.25;;
75608;SDS011;64194;51.044;13.780;2022-11-21T18:55:32;23.27;;;9.63;;
75608;SDS011;64194;51.044;13.780;2022-11-21T18:59:36;19.10;;;8.75;;
75608;SDS011;64194;51.044;13.780;2022-11-21T19:03:41;17.92;;;9.05;;
75608;SDS011;64194;51.044;13.780;2022-11-21T19:17:10;17.08;;;7.57;;
75608;SDS011;64194;51.044;13.780;2022-11-21T19:21:13;17.63;;;8.48;;
75608;SDS011;64194;51.044;13.780;2022-11-21T19:25:15;19.80;;;7.85;;
75608;SDS011;64194;51.044;13.780;2022-11-21T19:29:17;20.25;;;8.50;;
75608;SDS011;64194;51.044;13.780;2022-11-21T19:33:24;17.10;;;8.60;;
75608;SDS011;64194;51.044;13.780;2022-11-21T19:37:28;18.70;;;9.30;;
75608;SDS011;64194;51.044;13.780;2022-11-21T19:41:30;18.85;;;8.88;;
75608;SDS011;64194;51.044;13.780;2022-11-21T19:45:35;19.45;;;8.75;;
75608;SDS011;64194;51.044;13.780;2022-11-21T19:49:36;17.10;;;8.52;;
75608;SDS011;64194;51.044;13.780;2022-11-21T19:53:41;19.38;;;9.13;;
75608;SDS011;64194;51.044;13.780;2022-11-21T19:57:43;19.05;;;9.07;;
75608;SDS011;64194;51.044;13.780;2022-11-21T20:01:54;20.35;;;8.80;;
75608;SDS011;64194;51.044;13.780;2022-11-21T20:15:29;17.73;;;7.95;;
75608;SDS011;64194;51.044;13.780;2022-11-21T20:42:55;16.50;;;8.40;;
75608;SDS011;64194;51.044;13.780;2022-11-21T20:46:57;17.40;;;8.63;;
75608;SDS011;64194;51.044;13.780;2022-11-21T20:50:59;19.45;;;9.90;;
75608;SDS011;64194;51.044;13.780;2022-11-21T20:55:21;25.60;;;8.82;;
75608;SDS011;64194;51.044;13.780;2022-11-21T20:59:24;14.57;;;7.40;;
75608;SDS011;64194;51.044;13.780;2022-11-21T21:03:44;14.52;;;7.78;;
75608;SDS011;64194;51.044;13.780;2022-11-21T21:12:15;16.63;;;8.35;;
75608;SDS011;64194;51.044;13.780;2022-11-21T21:16:19;17.77;;;8.02;;
75608;SDS011;64194;51.044;13.780;2022-11-21T21:20:23;16.17;;;7.80;;
75608;SDS011;64194;51.044;13.780;2022-11-21T21:24:26;17.02;;;9.02;;
75608;SDS011;64194;51.044;13.780;2022-11-21T21:28:27;16.73;;;7.47;;
75608;SDS011;64194;51.044;13.780;2022-11-21T21:32:31;14.02;;;7.50;;
75608;SDS011;64194;51.044;13.780;2022-11-21T21:36:32;15.73;;;7.47;;
75608;SDS011;64194;51.044;13.780;2022-11-21T21:45:27;15.68;;;7.07;;
75608;SDS011;64194;51.044;13.780;2022-11-21T21:54:04;15.90;;;7.40;;
75608;SDS011;64194;51.044;13.780;2022-11-21T21:58:07;15.68;;;7.45;;
75608;SDS011;64194;51.044;13.780;2022-11-21T22:02:09;13.85;;;6.82;;
75608;SDS011;64194;51.044;13.780;2022-11-21T22:06:16;14.35;;;7.40;;
75608;SDS011;64194;51.044;13.780;2022-11-21T22:10:18;12.80;;;6.95;;
75608;SDS011;64194;51.044;13.780;2022-11-21T22:14:20;15.13;;;7.85;;
75608;SDS011;64194;51.044;13.780;2022-11-21T22:18:22;18.73;;;8.02;;
75608;SDS011;64194;51.044;13.780;2022-11-21T22:31:53;17.33;;;7.60;;
75608;SDS011;64194;51.044;13.780;2022-11-21T22:35:59;13.27;;;7.15;;
75608;SDS011;64194;51.044;13.780;2022-11-21T22:40:02;14.10;;;7.68;;
75608;SDS011;64194;51.044;13.780;2022-11-21T22:44:04;14.40;;;7.40;;
75608;SDS011;64194;51.044;13.780;2022-11-21T22:48:05;14.15;;;7.20;;
75608;SDS011;64194;51.044;13.780;2022-11-21T22:52:07;14.57;;;7.13;;
75608;SDS011;64194;51.044;13.780;2022-11-21T22:56:09;16.02;;;7.28;;
75608;SDS011;64194;51.044;13.780;2022-11-21T23:00:12;12.43;;;6.43;;
75608;SDS011;64194;51.044;13.780;2022-11-21T23:04:14;13.00;;;6.57;;
75608;SDS011;64194;51.044;13.780;2022-11-21T23:22:55;15.23;;;7.15;;
75608;SDS011;64194;51.044;13.780;2022-11-21T23:31:19;16.67;;;7.47;;
75608;SDS011;64194;51.044;13.780;2022-11-21T23:44:17;15.27;;;7.30;;
75608;SDS011;64194;51.044;13.780;2022-11-21T23:52:46;14.27;;;6.88;;
75608;SDS011;64194;51.044;13.780;2022-11-21T23:56:48;15.60;;;7.50;;
